Terminal Aerodrome Forecast
Issued by NWS Sterling, VA

Current Version | Previous Version | Text Only | Print | Product List | Glossary Off
Versions: 1 2 3 4 5 6 7 8 9 10 11 12 13 14 15 16 17 18 19 20 21 22 23 24 25 26 27 28 29 30

000
FTUS41 KLWX 042321
TAFIAD
TAF
KIAD 042321Z 0500/0606 19009KT P6SM FEW250
     FM050400 19005KT P6SM SCT250
     FM051400 25004KT P6SM SCT090
     FM051500 27005KT P6SM BKN080
     FM051900 25005KT 6SM -SHRA SCT050 BKN070
     FM060000 VRB03KT P6SM BKN110=

USA.gov is the U.S. government's official web portal to all federal, state and local government web resources and services.